createdAt,value
2019-04-23T00:03:06.501Z,2.45
2019-04-23T00:08:19.595Z,2.10
2019-04-23T00:13:24.750Z,2.33
2019-04-23T00:18:22.277Z,2.40
2019-04-23T00:23:25.577Z,2.77
2019-04-23T00:28:36.041Z,2.60
2019-04-23T00:33:31.420Z,2.50
2019-04-23T00:38:39.958Z,2.25
2019-04-23T00:43:47.509Z,2.30
2019-04-23T00:53:43.751Z,2.60
2019-04-23T00:58:49.505Z,2.47
2019-04-23T01:03:53.436Z,2.30
2019-04-23T01:08:55.099Z,2.60
2019-04-23T01:14:03.965Z,2.73
2019-04-23T01:19:28.019Z,2.70
2019-04-23T01:23:54.443Z,3.23
2019-04-23T01:29:12.613Z,3.13
2019-04-23T01:34:27.595Z,3.33
2019-04-23T01:39:23.133Z,3.10
2019-04-23T01:44:32.756Z,2.90
2019-04-23T01:49:37.584Z,3.77
2019-04-23T01:54:38.596Z,3.20
2019-04-23T01:59:39.212Z,3.00
2019-04-23T02:04:47.799Z,2.83
2019-04-23T02:09:48.534Z,3.33
2019-04-23T02:14:51.775Z,3.10
2019-04-23T02:19:59.529Z,3.07
2019-04-23T02:25:01.933Z,2.90
2019-04-23T02:30:15.646Z,2.77
2019-04-23T02:35:32.696Z,3.00
2019-04-23T02:40:17.039Z,3.00
2019-04-23T02:45:16.941Z,3.43
2019-04-23T02:50:34.640Z,3.03
2019-04-23T02:55:29.259Z,3.47
2019-04-23T03:00:28.843Z,3.10
2019-04-23T03:05:38.102Z,3.23
2019-04-23T03:10:42.002Z,3.73
2019-04-23T03:20:51.668Z,3.00
2019-04-23T03:25:45.449Z,3.50
2019-04-23T03:32:04.574Z,3.30
2019-04-23T03:51:16.369Z,3.03
2019-04-23T03:56:18.889Z,3.40
2019-04-23T04:01:19.772Z,3.90
2019-04-23T04:06:37.515Z,3.37
2019-04-23T04:11:18.186Z,3.40
2019-04-23T04:16:18.245Z,4.17
2019-04-23T04:26:37.778Z,4.00
2019-04-23T04:31:45.705Z,4.00
2019-04-23T04:41:40.728Z,4.47
2019-04-23T04:52:00.278Z,4.57
2019-04-23T04:56:51.314Z,3.90
2019-04-23T05:02:00.466Z,4.33
2019-04-23T05:17:06.703Z,4.40
2019-04-23T05:27:06.068Z,4.20
2019-04-23T05:32:05.786Z,4.40
2019-04-23T05:37:14.686Z,4.77
2019-04-23T05:42:34.013Z,4.57
2019-04-23T05:47:25.425Z,4.93
2019-04-23T05:52:24.232Z,5.00
2019-04-23T05:57:28.486Z,5.03
2019-04-23T06:02:33.841Z,5.07
2019-04-23T06:07:47.871Z,5.10
2019-04-23T06:12:39.946Z,5.20
2019-04-23T06:17:41.124Z,5.60
2019-04-23T06:27:54.966Z,5.50
2019-04-23T06:32:57.166Z,5.67
2019-04-23T06:43:00.971Z,6.20
2019-04-23T06:48:08.997Z,5.67
2019-04-23T06:53:02.016Z,5.90
2019-04-23T06:58:15.689Z,5.97
2019-04-23T07:03:15.055Z,6.00
2019-04-23T07:08:30.641Z,6.17
2019-04-23T07:13:34.375Z,6.22
2019-04-23T07:18:24.327Z,8.40
2019-04-23T07:23:38.047Z,7.55
2019-04-23T07:28:39.242Z,6.60
2019-04-23T07:33:46.875Z,6.80
2019-04-23T07:39:01.267Z,6.97
2019-04-23T07:43:58.934Z,7.00
2019-04-23T07:48:48.042Z,7.17
2019-04-23T07:54:01.751Z,7.72
2019-04-23T07:59:01.174Z,8.18
2019-04-23T08:04:03.092Z,8.23
2019-04-23T08:09:06.278Z,7.67
2019-04-23T08:14:08.373Z,9.15
2019-04-23T08:19:05.703Z,8.70
2019-04-23T08:24:11.992Z,8.55
2019-04-23T08:29:24.062Z,8.23
2019-04-23T08:34:31.492Z,9.30
2019-04-23T08:39:28.340Z,8.18
2019-04-23T08:44:39.582Z,8.20
2019-04-23T08:49:44.221Z,8.08
2019-04-23T08:59:43.520Z,8.60
2019-04-23T09:04:53.868Z,9.20
2019-04-23T09:09:53.654Z,8.70
2019-04-23T09:15:05.637Z,9.55
2019-04-23T09:20:13.245Z,9.93
2019-04-23T09:25:06.610Z,9.25
2019-04-23T09:30:09.395Z,9.38
2019-04-23T09:35:14.421Z,9.88
2019-04-23T09:40:20.413Z,9.90
2019-04-23T09:45:17.223Z,10.60
2019-04-23T09:50:23.443Z,9.60
2019-04-23T10:00:33.012Z,10.43
2019-04-23T10:05:13.990Z,10.88
2019-04-23T10:10:05.503Z,9.63
2019-04-23T10:15:15.440Z,9.60
2019-04-23T10:20:11.085Z,10.10
2019-04-23T10:25:12.973Z,9.28
2019-04-23T10:30:14.727Z,9.83
2019-04-23T10:35:28.933Z,10.38
2019-04-23T10:40:25.953Z,10.05
2019-04-23T10:45:34.938Z,9.78
2019-04-23T10:50:51.174Z,9.50
2019-04-23T11:01:04.565Z,10.20
2019-04-23T11:11:14.701Z,10.63
2019-04-23T11:21:24.074Z,11.48
2019-04-23T11:26:31.760Z,10.08
2019-04-23T11:31:32.028Z,10.30
2019-04-23T11:41:51.692Z,11.45
2019-04-23T11:51:54.026Z,11.80
2019-04-23T12:06:55.872Z,9.70
2019-04-23T12:27:06.151Z,9.38
2019-04-23T12:32:23.379Z,9.53
2019-04-23T12:37:19.643Z,10.45
2019-04-23T12:42:38.349Z,9.68
2019-04-23T12:47:41.860Z,10.05
2019-04-23T12:52:32.532Z,9.90
2019-04-23T12:57:29.775Z,9.48
2019-04-23T13:02:39.780Z,9.18
2019-04-23T13:07:38.078Z,9.65
2019-04-23T13:12:45.959Z,9.98
2019-04-23T13:22:49.424Z,9.33
2019-04-23T13:27:53.995Z,10.03
2019-04-23T13:32:55.898Z,9.85
2019-04-23T13:37:58.999Z,8.48
2019-04-23T13:43:00.939Z,8.80
2019-04-23T13:53:24.142Z,8.18
2019-04-23T14:03:17.599Z,8.15
2019-04-23T14:08:23.224Z,8.08
2019-04-23T14:13:37.079Z,7.80
2019-04-23T14:28:34.338Z,8.13
2019-04-23T14:38:41.478Z,8.03
2019-04-23T14:43:48.727Z,7.75
2019-04-23T14:48:46.521Z,7.75
2019-04-23T15:03:50.087Z,7.17
2019-04-23T15:09:10.932Z,7.55
2019-04-23T15:14:05.341Z,7.53
2019-04-23T15:19:31.640Z,6.33
2019-04-23T15:24:15.686Z,6.80
2019-04-23T15:28:57.032Z,6.85
2019-04-23T15:34:17.748Z,6.90
2019-04-23T15:44:16.114Z,7.15
2019-04-23T15:49:32.254Z,6.95
2019-04-23T15:54:35.715Z,7.40
2019-04-23T15:59:44.106Z,8.83
2019-04-23T16:04:11.275Z,7.83
2019-04-23T16:09:42.229Z,7.72
2019-04-23T16:14:47.915Z,8.20
2019-04-23T16:19:52.923Z,8.58
2019-04-23T16:24:59.862Z,8.13
2019-04-23T16:35:12.263Z,9.23
2019-04-23T16:40:13.879Z,9.00
2019-04-23T16:45:14.932Z,7.90
2019-04-23T16:50:11.452Z,8.60
2019-04-23T17:05:24.908Z,8.58
2019-04-23T17:10:30.981Z,8.13
2019-04-23T17:15:33.310Z,8.40
2019-04-23T17:20:40.794Z,8.18
2019-04-23T17:25:41.806Z,8.50
2019-04-23T17:36:07.108Z,9.05
2019-04-23T17:41:01.620Z,9.20
2019-04-23T17:45:54.397Z,9.08
2019-04-23T17:51:02.849Z,8.93
2019-04-23T17:56:18.442Z,9.00
2019-04-23T18:01:20.136Z,9.03
2019-04-23T18:06:28.299Z,9.83
2019-04-23T18:11:25.552Z,9.98
2019-04-23T18:16:41.688Z,9.83
2019-04-23T18:26:38.657Z,11.15
2019-04-23T18:31:44.603Z,10.88
2019-04-23T18:36:43.843Z,10.75
2019-04-23T18:41:52.387Z,10.05
2019-04-23T18:46:49.058Z,10.95
2019-04-23T18:52:04.734Z,10.98
2019-04-23T18:57:09.315Z,11.12
2019-04-23T19:02:06.642Z,10.95
2019-04-23T19:07:07.187Z,11.70
2019-04-23T19:12:19.741Z,11.20
2019-04-23T19:17:43.684Z,11.40
2019-04-23T19:22:29.228Z,10.68
2019-04-23T19:27:28.614Z,13.05
2019-04-23T19:32:28.343Z,12.28
2019-04-23T19:37:46.768Z,12.95
2019-04-23T19:42:36.549Z,13.38
2019-04-23T19:47:45.887Z,12.90
2019-04-23T19:52:55.006Z,13.08
2019-04-23T19:57:54.942Z,13.35
2019-04-23T20:07:54.941Z,13.93
2019-04-23T20:12:44.590Z,13.80
2019-04-23T20:18:11.621Z,12.82
2019-04-23T20:22:55.615Z,13.25
2019-04-23T20:28:33.683Z,13.18
2019-04-23T20:33:48.546Z,13.65
2019-04-23T20:43:18.980Z,14.43
2019-04-23T20:48:25.324Z,14.30
2019-04-23T20:53:28.358Z,14.53
2019-04-23T20:58:34.402Z,14.68
2019-04-23T21:08:52.132Z,14.15
2019-04-23T21:14:12.465Z,14.33
2019-04-23T21:23:50.419Z,13.75
2019-04-23T21:28:54.314Z,14.20
2019-04-23T21:33:59.280Z,14.98
2019-04-23T21:39:03.268Z,16.02
2019-04-23T21:44:10.156Z,15.05
2019-04-23T21:49:18.087Z,16.37
2019-04-23T21:54:02.060Z,16.23
2019-04-23T21:59:16.687Z,16.80
2019-04-23T22:04:39.987Z,17.70
2019-04-23T22:09:22.550Z,17.75
2019-04-23T22:19:19.772Z,17.40
2019-04-23T22:24:25.117Z,17.12
2019-04-23T22:29:37.753Z,17.95
2019-04-23T22:34:43.283Z,19.80
2019-04-23T22:39:39.978Z,19.90
2019-04-23T22:45:05.328Z,18.52
2019-04-23T22:49:56.963Z,19.62
2019-04-23T22:54:56.832Z,19.80
2019-04-23T23:00:03.933Z,19.02
2019-04-23T23:05:10.305Z,19.73
2019-04-23T23:10:09.025Z,20.45
2019-04-23T23:15:08.047Z,19.37
2019-04-23T23:25:18.892Z,19.15
2019-04-23T23:30:19.604Z,19.40
2019-04-23T23:40:30.278Z,18.20
2019-04-23T23:45:25.705Z,18.85
